sensor_id;sensor_type;location;lat;lon;timestamp;temperature;humidity
1453;DHT22;720;47.738;7.998;2022-07-10T00:00:29;14.90;99.80
1453;DHT22;720;47.738;7.998;2022-07-10T00:02:55;14.80;99.90
1453;DHT22;720;47.738;7.998;2022-07-10T00:05:22;14.80;99.90
1453;DHT22;720;47.738;7.998;2022-07-10T00:07:49;14.90;99.90
1453;DHT22;720;47.738;7.998;2022-07-10T00:10:16;14.80;99.90
1453;DHT22;720;47.738;7.998;2022-07-10T00:12:42;14.80;99.90
1453;DHT22;720;47.738;7.998;2022-07-10T00:15:08;14.80;99.90
1453;DHT22;720;47.738;7.998;2022-07-10T00:17:34;14.80;99.90
1453;DHT22;720;47.738;7.998;2022-07-10T00:20:02;14.80;99.90
1453;DHT22;720;47.738;7.998;2022-07-10T00:22:28;14.90;99.90
1453;DHT22;720;47.738;7.998;2022-07-10T00:24:54;14.80;99.90
1453;DHT22;720;47.738;7.998;2022-07-10T00:27:20;14.90;99.90
1453;DHT22;720;47.738;7.998;2022-07-10T00:29:45;14.90;99.90
1453;DHT22;720;47.738;7.998;2022-07-10T00:32:11;14.90;99.90
1453;DHT22;720;47.738;7.998;2022-07-10T00:34:37;15.00;99.90
1453;DHT22;720;47.738;7.998;2022-07-10T00:37:03;15.00;99.90
1453;DHT22;720;47.738;7.998;2022-07-10T00:39:30;15.00;99.90
1453;DHT22;720;47.738;7.998;2022-07-10T00:42:05;15.00;99.90
1453;DHT22;720;47.738;7.998;2022-07-10T00:44:31;15.00;99.90
1453;DHT22;720;47.738;7.998;2022-07-10T00:46:57;15.00;99.90
1453;DHT22;720;47.738;7.998;2022-07-10T00:49:22;15.10;99.90
1453;DHT22;720;47.738;7.998;2022-07-10T00:51:48;15.10;99.90
1453;DHT22;720;47.738;7.998;2022-07-10T00:54:14;15.20;99.90
1453;DHT22;720;47.738;7.998;2022-07-10T00:56:42;15.20;99.90
1453;DHT22;720;47.738;7.998;2022-07-10T00:59:09;15.10;99.90
1453;DHT22;720;47.738;7.998;2022-07-10T01:01:35;15.10;99.90
1453;DHT22;720;47.738;7.998;2022-07-10T01:04:02;15.00;99.90
1453;DHT22;720;47.738;7.998;2022-07-10T01:06:27;15.00;99.90
1453;DHT22;720;47.738;7.998;2022-07-10T01:08:53;15.00;99.90
1453;DHT22;720;47.738;7.998;2022-07-10T01:11:19;14.90;99.90
1453;DHT22;720;47.738;7.998;2022-07-10T01:13:45;14.90;99.90
1453;DHT22;720;47.738;7.998;2022-07-10T01:16:13;14.90;99.90
1453;DHT22;720;47.738;7.998;2022-07-10T01:18:40;14.90;99.90
1453;DHT22;720;47.738;7.998;2022-07-10T01:21:06;14.90;99.90
1453;DHT22;720;47.738;7.998;2022-07-10T01:23:31;14.90;99.80
1453;DHT22;720;47.738;7.998;2022-07-10T01:25:57;14.90;99.90
1453;DHT22;720;47.738;7.998;2022-07-10T01:28:23;15.00;99.90
1453;DHT22;720;47.738;7.998;2022-07-10T01:30:50;15.00;99.90
1453;DHT22;720;47.738;7.998;2022-07-10T01:33:16;15.00;99.90
1453;DHT22;720;47.738;7.998;2022-07-10T01:35:41;15.00;99.90
1453;DHT22;720;47.738;7.998;2022-07-10T01:38:07;15.10;99.90
1453;DHT22;720;47.738;7.998;2022-07-10T01:40:33;15.10;99.90
1453;DHT22;720;47.738;7.998;2022-07-10T01:42:59;15.10;99.90
1453;DHT22;720;47.738;7.998;2022-07-10T01:45:25;15.10;99.90
1453;DHT22;720;47.738;7.998;2022-07-10T01:47:51;15.10;99.90
1453;DHT22;720;47.738;7.998;2022-07-10T01:50:16;15.00;99.90
1453;DHT22;720;47.738;7.998;2022-07-10T01:52:42;15.00;99.90
1453;DHT22;720;47.738;7.998;2022-07-10T01:55:08;15.00;99.90
1453;DHT22;720;47.738;7.998;2022-07-10T01:57:34;14.90;99.90
1453;DHT22;720;47.738;7.998;2022-07-10T01:59:59;14.90;99.90
1453;DHT22;720;47.738;7.998;2022-07-10T02:02:25;14.90;99.90
1453;DHT22;720;47.738;7.998;2022-07-10T02:04:51;14.70;99.90
1453;DHT22;720;47.738;7.998;2022-07-10T02:07:18;14.70;99.90
1453;DHT22;720;47.738;7.998;2022-07-10T02:09:44;14.70;99.90
1453;DHT22;720;47.738;7.998;2022-07-10T02:12:12;14.70;99.90
1453;DHT22;720;47.738;7.998;2022-07-10T02:14:39;14.60;99.90
1453;DHT22;720;47.738;7.998;2022-07-10T02:17:05;14.50;99.90
1453;DHT22;720;47.738;7.998;2022-07-10T02:19:32;14.40;99.90
1453;DHT22;720;47.738;7.998;2022-07-10T02:21:58;14.40;99.90
1453;DHT22;720;47.738;7.998;2022-07-10T02:24:24;14.30;99.90
1453;DHT22;720;47.738;7.998;2022-07-10T02:26:50;14.40;99.90
1453;DHT22;720;47.738;7.998;2022-07-10T02:29:16;14.30;99.90
1453;DHT22;720;47.738;7.998;2022-07-10T02:31:42;14.30;99.90
1453;DHT22;720;47.738;7.998;2022-07-10T02:34:09;14.20;99.90
1453;DHT22;720;47.738;7.998;2022-07-10T02:36:35;14.30;99.90
1453;DHT22;720;47.738;7.998;2022-07-10T02:39:02;14.20;99.90
1453;DHT22;720;47.738;7.998;2022-07-10T02:41:28;14.10;99.90
1453;DHT22;720;47.738;7.998;2022-07-10T02:43:53;14.20;99.90
1453;DHT22;720;47.738;7.998;2022-07-10T02:46:19;14.20;99.90
1453;DHT22;720;47.738;7.998;2022-07-10T02:48:45;14.10;99.90
1453;DHT22;720;47.738;7.998;2022-07-10T02:51:10;14.10;99.90
1453;DHT22;720;47.738;7.998;2022-07-10T02:53:36;14.00;99.90
1453;DHT22;720;47.738;7.998;2022-07-10T02:56:02;14.00;99.90
1453;DHT22;720;47.738;7.998;2022-07-10T02:58:28;14.00;99.90
1453;DHT22;720;47.738;7.998;2022-07-10T03:00:53;14.00;99.90
1453;DHT22;720;47.738;7.998;2022-07-10T03:03:19;14.00;99.90
1453;DHT22;720;47.738;7.998;2022-07-10T03:05:45;14.00;99.90
1453;DHT22;720;47.738;7.998;2022-07-10T03:08:11;14.00;99.90
1453;DHT22;720;47.738;7.998;2022-07-10T03:10:37;14.00;99.90
1453;DHT22;720;47.738;7.998;2022-07-10T03:13:03;13.90;99.90
1453;DHT22;720;47.738;7.998;2022-07-10T03:15:28;13.90;99.90
1453;DHT22;720;47.738;7.998;2022-07-10T03:17:54;13.90;99.90
1453;DHT22;720;47.738;7.998;2022-07-10T03:20:20;13.90;99.90
1453;DHT22;720;47.738;7.998;2022-07-10T03:22:46;13.70;99.90
1453;DHT22;720;47.738;7.998;2022-07-10T03:25:11;13.80;99.90
1453;DHT22;720;47.738;7.998;2022-07-10T03:27:39;13.80;99.90
1453;DHT22;720;47.738;7.998;2022-07-10T03:30:05;13.90;99.90
1453;DHT22;720;47.738;7.998;2022-07-10T03:32:31;13.80;99.90
1453;DHT22;720;47.738;7.998;2022-07-10T03:34:56;13.70;99.90
1453;DHT22;720;47.738;7.998;2022-07-10T03:37:22;13.70;99.90
1453;DHT22;720;47.738;7.998;2022-07-10T03:39:48;13.80;99.90
1453;DHT22;720;47.738;7.998;2022-07-10T03:42:13;13.80;99.90
1453;DHT22;720;47.738;7.998;2022-07-10T03:44:39;13.70;99.90
1453;DHT22;720;47.738;7.998;2022-07-10T03:47:05;13.80;99.90
1453;DHT22;720;47.738;7.998;2022-07-10T03:49:30;13.80;99.90
1453;DHT22;720;47.738;7.998;2022-07-10T03:52:00;13.80;99.90
1453;DHT22;720;47.738;7.998;2022-07-10T03:54:26;13.80;99.90
1453;DHT22;720;47.738;7.998;2022-07-10T03:56:52;13.80;99.90
1453;DHT22;720;47.738;7.998;2022-07-10T03:59:36;13.70;99.90
1453;DHT22;720;47.738;7.998;2022-07-10T04:02:02;13.80;99.90
1453;DHT22;720;47.738;7.998;2022-07-10T04:04:27;13.80;99.90
1453;DHT22;720;47.738;7.998;2022-07-10T04:06:53;13.80;99.90
1453;DHT22;720;47.738;7.998;2022-07-10T04:09:19;13.70;99.90
1453;DHT22;720;47.738;7.998;2022-07-10T04:11:45;13.70;99.90
1453;DHT22;720;47.738;7.998;2022-07-10T04:14:10;13.60;99.90
1453;DHT22;720;47.738;7.998;2022-07-10T04:16:36;13.80;99.90
1453;DHT22;720;47.738;7.998;2022-07-10T04:19:02;13.90;99.90
1453;DHT22;720;47.738;7.998;2022-07-10T04:21:28;14.00;99.90
1453;DHT22;720;47.738;7.998;2022-07-10T04:23:53;14.10;99.90
1453;DHT22;720;47.738;7.998;2022-07-10T04:26:19;14.20;99.90
1453;DHT22;720;47.738;7.998;2022-07-10T04:28:45;14.30;99.90
1453;DHT22;720;47.738;7.998;2022-07-10T04:31:11;14.40;99.90
1453;DHT22;720;47.738;7.998;2022-07-10T04:33:36;14.50;99.90
1453;DHT22;720;47.738;7.998;2022-07-10T04:36:02;14.70;99.90
1453;DHT22;720;47.738;7.998;2022-07-10T04:38:28;15.10;99.90
1453;DHT22;720;47.738;7.998;2022-07-10T04:40:54;15.60;99.90
1453;DHT22;720;47.738;7.998;2022-07-10T04:43:20;16.10;99.30
1453;DHT22;720;47.738;7.998;2022-07-10T04:45:46;16.60;98.30
1453;DHT22;720;47.738;7.998;2022-07-10T04:48:12;17.10;97.20
1453;DHT22;720;47.738;7.998;2022-07-10T04:50:37;17.40;95.80
1453;DHT22;720;47.738;7.998;2022-07-10T04:53:03;17.50;95.60
1453;DHT22;720;47.738;7.998;2022-07-10T04:55:29;17.50;95.60
1453;DHT22;720;47.738;7.998;2022-07-10T04:57:55;17.60;95.50
1453;DHT22;720;47.738;7.998;2022-07-10T05:00:20;17.40;95.20
1453;DHT22;720;47.738;7.998;2022-07-10T05:02:46;17.30;95.50
1453;DHT22;720;47.738;7.998;2022-07-10T05:05:12;17.10;95.90
1453;DHT22;720;47.738;7.998;2022-07-10T05:07:38;17.00;96.30
1453;DHT22;720;47.738;7.998;2022-07-10T05:10:04;16.90;96.90
1453;DHT22;720;47.738;7.998;2022-07-10T05:12:30;16.80;97.10
1453;DHT22;720;47.738;7.998;2022-07-10T05:14:56;16.90;97.30
1453;DHT22;720;47.738;7.998;2022-07-10T05:17:22;16.90;97.20
1453;DHT22;720;47.738;7.998;2022-07-10T05:19:48;17.00;97.10
1453;DHT22;720;47.738;7.998;2022-07-10T05:22:14;16.90;96.60
1453;DHT22;720;47.738;7.998;2022-07-10T05:24:40;16.90;96.80
1453;DHT22;720;47.738;7.998;2022-07-10T05:27:10;16.90;96.50
1453;DHT22;720;47.738;7.998;2022-07-10T05:29:36;17.00;96.50
1453;DHT22;720;47.738;7.998;2022-07-10T05:32:02;17.10;96.50
1453;DHT22;720;47.738;7.998;2022-07-10T05:34:27;17.20;96.60
1453;DHT22;720;47.738;7.998;2022-07-10T05:36:53;17.40;96.40
1453;DHT22;720;47.738;7.998;2022-07-10T05:39:19;17.50;96.30
1453;DHT22;720;47.738;7.998;2022-07-10T05:41:45;17.60;96.10
1453;DHT22;720;47.738;7.998;2022-07-10T05:44:10;17.80;96.40
1453;DHT22;720;47.738;7.998;2022-07-10T05:46:36;17.90;95.90
1453;DHT22;720;47.738;7.998;2022-07-10T05:49:02;17.80;95.70
1453;DHT22;720;47.738;7.998;2022-07-10T05:51:27;17.90;95.80
1453;DHT22;720;47.738;7.998;2022-07-10T05:53:53;18.10;96.50
1453;DHT22;720;47.738;7.998;2022-07-10T05:56:18;18.10;95.90
1453;DHT22;720;47.738;7.998;2022-07-10T05:58:44;18.20;95.90
1453;DHT22;720;47.738;7.998;2022-07-10T06:01:10;18.20;95.90
1453;DHT22;720;47.738;7.998;2022-07-10T06:03:35;18.10;95.50
1453;DHT22;720;47.738;7.998;2022-07-10T06:06:01;18.30;96.50
1453;DHT22;720;47.738;7.998;2022-07-10T06:08:26;18.30;96.10
1453;DHT22;720;47.738;7.998;2022-07-10T06:10:52;18.50;96.00
1453;DHT22;720;47.738;7.998;2022-07-10T06:13:18;18.90;96.20
1453;DHT22;720;47.738;7.998;2022-07-10T06:15:44;19.40;95.80
1453;DHT22;720;47.738;7.998;2022-07-10T06:18:09;20.30;94.30
1453;DHT22;720;47.738;7.998;2022-07-10T06:20:35;21.00;93.10
1453;DHT22;720;47.738;7.998;2022-07-10T06:23:00;21.40;92.60
1453;DHT22;720;47.738;7.998;2022-07-10T06:25:26;21.40;91.10
1453;DHT22;720;47.738;7.998;2022-07-10T06:27:52;21.40;91.00
1453;DHT22;720;47.738;7.998;2022-07-10T06:30:18;21.50;91.60
1453;DHT22;720;47.738;7.998;2022-07-10T06:32:43;22.80;90.80
1453;DHT22;720;47.738;7.998;2022-07-10T06:35:10;23.90;87.40
1453;DHT22;720;47.738;7.998;2022-07-10T06:37:35;24.70;84.20
1453;DHT22;720;47.738;7.998;2022-07-10T06:40:01;24.90;82.40
1453;DHT22;720;47.738;7.998;2022-07-10T06:42:27;24.60;81.40
1453;DHT22;720;47.738;7.998;2022-07-10T06:44:53;24.20;80.60
1453;DHT22;720;47.738;7.998;2022-07-10T06:47:19;23.80;80.20
1453;DHT22;720;47.738;7.998;2022-07-10T06:50:06;23.10;78.30
1453;DHT22;720;47.738;7.998;2022-07-10T06:52:33;22.80;79.70
1453;DHT22;720;47.738;7.998;2022-07-10T06:54:59;22.90;81.10
1453;DHT22;720;47.738;7.998;2022-07-10T06:57:25;23.70;81.70
1453;DHT22;720;47.738;7.998;2022-07-10T06:59:50;24.90;77.40
1453;DHT22;720;47.738;7.998;2022-07-10T07:02:17;25.30;75.50
1453;DHT22;720;47.738;7.998;2022-07-10T07:04:43;25.20;75.20
1453;DHT22;720;47.738;7.998;2022-07-10T07:07:14;25.20;74.50
1453;DHT22;720;47.738;7.998;2022-07-10T07:09:41;25.70;73.50
1453;DHT22;720;47.738;7.998;2022-07-10T07:12:08;26.60;74.20
1453;DHT22;720;47.738;7.998;2022-07-10T07:14:34;27.50;69.50
1453;DHT22;720;47.738;7.998;2022-07-10T07:17:01;28.00;64.20
1453;DHT22;720;47.738;7.998;2022-07-10T07:19:35;28.50;60.50
1453;DHT22;720;47.738;7.998;2022-07-10T07:22:20;28.40;60.40
1453;DHT22;720;47.738;7.998;2022-07-10T07:25:05;27.70;60.60
1453;DHT22;720;47.738;7.998;2022-07-10T07:27:33;26.50;63.40
1453;DHT22;720;47.738;7.998;2022-07-10T07:30:02;25.20;65.50
1453;DHT22;720;47.738;7.998;2022-07-10T07:32:28;24.00;69.50
1453;DHT22;720;47.738;7.998;2022-07-10T07:34:54;23.30;71.60
1453;DHT22;720;47.738;7.998;2022-07-10T07:37:19;22.70;73.50
1453;DHT22;720;47.738;7.998;2022-07-10T07:39:45;22.20;75.10
1453;DHT22;720;47.738;7.998;2022-07-10T07:42:11;21.80;78.10
1453;DHT22;720;47.738;7.998;2022-07-10T07:44:36;21.40;80.20
1453;DHT22;720;47.738;7.998;2022-07-10T07:47:02;21.10;82.10
1453;DHT22;720;47.738;7.998;2022-07-10T07:49:28;21.10;85.10
1453;DHT22;720;47.738;7.998;2022-07-10T07:51:53;21.10;86.60
1453;DHT22;720;47.738;7.998;2022-07-10T07:54:19;21.90;84.10
1453;DHT22;720;47.738;7.998;2022-07-10T07:56:45;23.20;82.30
1453;DHT22;720;47.738;7.998;2022-07-10T07:59:10;24.80;77.70
1453;DHT22;720;47.738;7.998;2022-07-10T08:01:38;26.20;72.20
1453;DHT22;720;47.738;7.998;2022-07-10T08:04:04;26.60;71.70
1453;DHT22;720;47.738;7.998;2022-07-10T08:06:30;26.20;70.00
1453;DHT22;720;47.738;7.998;2022-07-10T08:08:56;25.50;73.30
1453;DHT22;720;47.738;7.998;2022-07-10T08:11:22;25.30;75.10
1453;DHT22;720;47.738;7.998;2022-07-10T08:13:48;26.00;74.50
1453;DHT22;720;47.738;7.998;2022-07-10T08:16:13;27.30;70.70
1453;DHT22;720;47.738;7.998;2022-07-10T08:18:39;28.80;66.70
1453;DHT22;720;47.738;7.998;2022-07-10T08:21:05;29.40;61.60
1453;DHT22;720;47.738;7.998;2022-07-10T08:23:30;29.40;60.60
1453;DHT22;720;47.738;7.998;2022-07-10T08:25:56;29.10;61.60
1453;DHT22;720;47.738;7.998;2022-07-10T08:28:22;28.10;62.00
1453;DHT22;720;47.738;7.998;2022-07-10T08:30:47;27.00;63.30
1453;DHT22;720;47.738;7.998;2022-07-10T08:33:13;26.50;65.80
1453;DHT22;720;47.738;7.998;2022-07-10T08:35:39;26.60;65.50
1453;DHT22;720;47.738;7.998;2022-07-10T08:38:08;28.10;62.60
1453;DHT22;720;47.738;7.998;2022-07-10T08:40:36;29.90;58.90
1453;DHT22;720;47.738;7.998;2022-07-10T08:43:02;31.10;55.00
1453;DHT22;720;47.738;7.998;2022-07-10T08:45:31;31.00;54.10
1453;DHT22;720;47.738;7.998;2022-07-10T08:48:02;30.00;55.60
1453;DHT22;720;47.738;7.998;2022-07-10T08:50:29;28.40;57.90
1453;DHT22;720;47.738;7.998;2022-07-10T08:53:13;26.80;60.00
1453;DHT22;720;47.738;7.998;2022-07-10T08:55:42;25.60;62.30
1453;DHT22;720;47.738;7.998;2022-07-10T08:58:09;24.50;66.30
1453;DHT22;720;47.738;7.998;2022-07-10T09:00:35;23.60;70.80
1453;DHT22;720;47.738;7.998;2022-07-10T09:03:01;23.50;74.50
1453;DHT22;720;47.738;7.998;2022-07-10T09:05:27;25.30;72.00
1453;DHT22;720;47.738;7.998;2022-07-10T09:07:53;27.40;65.50
1453;DHT22;720;47.738;7.998;2022-07-10T09:10:20;29.30;59.60
1453;DHT22;720;47.738;7.998;2022-07-10T09:12:55;29.50;56.20
1453;DHT22;720;47.738;7.998;2022-07-10T09:15:23;28.60;58.70
1453;DHT22;720;47.738;7.998;2022-07-10T09:17:59;27.20;59.90
1453;DHT22;720;47.738;7.998;2022-07-10T09:23:18;25.40;66.30
1453;DHT22;720;47.738;7.998;2022-07-10T09:25:52;26.00;67.20
1453;DHT22;720;47.738;7.998;2022-07-10T09:28:20;27.60;63.60
1453;DHT22;720;47.738;7.998;2022-07-10T09:30:46;29.00;58.30
1453;DHT22;720;47.738;7.998;2022-07-10T09:33:26;29.70;57.30
1453;DHT22;720;47.738;7.998;2022-07-10T09:36:03;29.10;55.20
1453;DHT22;720;47.738;7.998;2022-07-10T09:41:19;26.40;59.90
1453;DHT22;720;47.738;7.998;2022-07-10T09:43:46;25.50;62.20
1453;DHT22;720;47.738;7.998;2022-07-10T09:46:12;25.80;62.90
1453;DHT22;720;47.738;7.998;2022-07-10T09:48:38;27.50;61.50
1453;DHT22;720;47.738;7.998;2022-07-10T09:51:07;29.20;58.80
1453;DHT22;720;47.738;7.998;2022-07-10T09:53:41;29.60;55.60
1453;DHT22;720;47.738;7.998;2022-07-10T09:56:11;30.20;51.60
1453;DHT22;720;47.738;7.998;2022-07-10T09:58:38;29.50;52.30
1453;DHT22;720;47.738;7.998;2022-07-10T10:01:07;28.50;55.20
1453;DHT22;720;47.738;7.998;2022-07-10T10:03:41;27.50;55.20
1453;DHT22;720;47.738;7.998;2022-07-10T10:06:10;27.20;60.90
1453;DHT22;720;47.738;7.998;2022-07-10T10:08:56;28.10;56.90
1453;DHT22;720;47.738;7.998;2022-07-10T10:11:26;29.40;55.90
1453;DHT22;720;47.738;7.998;2022-07-10T10:13:52;29.90;56.30
1453;DHT22;720;47.738;7.998;2022-07-10T10:16:22;30.10;56.40
1453;DHT22;720;47.738;7.998;2022-07-10T10:18:50;30.60;52.90
1453;DHT22;720;47.738;7.998;2022-07-10T10:21:36;31.00;50.50
1453;DHT22;720;47.738;7.998;2022-07-10T10:24:02;30.70;50.60
1453;DHT22;720;47.738;7.998;2022-07-10T10:26:28;30.70;51.40
1453;DHT22;720;47.738;7.998;2022-07-10T10:28:59;30.80;49.20
1453;DHT22;720;47.738;7.998;2022-07-10T10:31:27;30.30;51.60
1453;DHT22;720;47.738;7.998;2022-07-10T10:33:55;29.20;49.50
1453;DHT22;720;47.738;7.998;2022-07-10T10:39:03;28.30;53.00
1453;DHT22;720;47.738;7.998;2022-07-10T10:41:47;28.50;51.60
1453;DHT22;720;47.738;7.998;2022-07-10T10:49:20;27.90;56.60
1453;DHT22;720;47.738;7.998;2022-07-10T10:52:09;27.50;56.90
1453;DHT22;720;47.738;7.998;2022-07-10T11:00:03;26.00;61.10
1453;DHT22;720;47.738;7.998;2022-07-10T11:02:37;26.20;61.90
1453;DHT22;720;47.738;7.998;2022-07-10T11:08:01;26.80;59.30
1453;DHT22;720;47.738;7.998;2022-07-10T11:10:38;27.30;58.10
1453;DHT22;720;47.738;7.998;2022-07-10T11:15:37;27.50;53.50
1453;DHT22;720;47.738;7.998;2022-07-10T11:18:06;27.30;55.10
1453;DHT22;720;47.738;7.998;2022-07-10T11:20:37;27.20;55.40
1453;DHT22;720;47.738;7.998;2022-07-10T11:26:45;26.80;56.40
1453;DHT22;720;47.738;7.998;2022-07-10T11:29:06;25.90;56.30
1453;DHT22;720;47.738;7.998;2022-07-10T11:31:32;25.60;56.60
1453;DHT22;720;47.738;7.998;2022-07-10T11:34:03;25.60;58.20
1453;DHT22;720;47.738;7.998;2022-07-10T11:36:29;25.90;57.50
1453;DHT22;720;47.738;7.998;2022-07-10T11:39:01;26.00;60.20
1453;DHT22;720;47.738;7.998;2022-07-10T11:41:28;26.20;56.30
1453;DHT22;720;47.738;7.998;2022-07-10T11:44:01;25.90;56.60
1453;DHT22;720;47.738;7.998;2022-07-10T11:46:33;25.80;59.20
1453;DHT22;720;47.738;7.998;2022-07-10T11:48:59;25.90;59.90
1453;DHT22;720;47.738;7.998;2022-07-10T11:51:34;25.80;56.90
1453;DHT22;720;47.738;7.998;2022-07-10T11:54:07;25.70;57.30
1453;DHT22;720;47.738;7.998;2022-07-10T11:56:39;25.70;57.80
1453;DHT22;720;47.738;7.998;2022-07-10T11:59:08;25.50;57.10
1453;DHT22;720;47.738;7.998;2022-07-10T12:01:47;25.30;57.00
1453;DHT22;720;47.738;7.998;2022-07-10T12:04:15;25.20;57.70
1453;DHT22;720;47.738;7.998;2022-07-10T12:06:43;25.40;58.90
1453;DHT22;720;47.738;7.998;2022-07-10T12:09:15;25.20;56.60
1453;DHT22;720;47.738;7.998;2022-07-10T12:11:43;25.30;58.10
1453;DHT22;720;47.738;7.998;2022-07-10T12:14:18;25.50;56.60
1453;DHT22;720;47.738;7.998;2022-07-10T12:19:12;25.20;57.90
1453;DHT22;720;47.738;7.998;2022-07-10T12:21:39;25.00;58.60
1453;DHT22;720;47.738;7.998;2022-07-10T12:24:05;25.00;58.30
1453;DHT22;720;47.738;7.998;2022-07-10T12:26:33;24.90;60.50
1453;DHT22;720;47.738;7.998;2022-07-10T12:29:00;24.80;57.80
1453;DHT22;720;47.738;7.998;2022-07-10T12:31:37;24.50;59.60
1453;DHT22;720;47.738;7.998;2022-07-10T12:34:04;24.50;60.80
1453;DHT22;720;47.738;7.998;2022-07-10T12:36:50;24.60;61.40
1453;DHT22;720;47.738;7.998;2022-07-10T12:39:21;25.00;60.90
1453;DHT22;720;47.738;7.998;2022-07-10T12:47:22;24.90;57.70
1453;DHT22;720;47.738;7.998;2022-07-10T12:49:56;24.40;58.00
1453;DHT22;720;47.738;7.998;2022-07-10T12:52:30;24.20;60.10
1453;DHT22;720;47.738;7.998;2022-07-10T12:55:19;24.10;61.40
1453;DHT22;720;47.738;7.998;2022-07-10T13:00:35;23.60;61.80
1453;DHT22;720;47.738;7.998;2022-07-10T13:03:02;23.30;62.40
1453;DHT22;720;47.738;7.998;2022-07-10T13:05:42;23.10;62.20
1453;DHT22;720;47.738;7.998;2022-07-10T13:08:18;23.20;66.50
1453;DHT22;720;47.738;7.998;2022-07-10T13:10:55;23.50;63.50
1453;DHT22;720;47.738;7.998;2022-07-10T13:13:22;23.70;58.50
1453;DHT22;720;47.738;7.998;2022-07-10T13:15:48;23.90;58.20
1453;DHT22;720;47.738;7.998;2022-07-10T13:18:26;24.00;58.30
1453;DHT22;720;47.738;7.998;2022-07-10T13:20:57;24.10;57.70
1453;DHT22;720;47.738;7.998;2022-07-10T13:23:24;24.00;58.30
1453;DHT22;720;47.738;7.998;2022-07-10T13:25:54;23.90;58.70
1453;DHT22;720;47.738;7.998;2022-07-10T13:28:20;23.90;58.70
1453;DHT22;720;47.738;7.998;2022-07-10T13:30:46;23.90;58.00
1453;DHT22;720;47.738;7.998;2022-07-10T13:33:12;23.80;57.10
1453;DHT22;720;47.738;7.998;2022-07-10T13:35:39;23.80;57.50
1453;DHT22;720;47.738;7.998;2022-07-10T13:38:05;23.80;57.50
1453;DHT22;720;47.738;7.998;2022-07-10T13:40:33;23.70;58.00
1453;DHT22;720;47.738;7.998;2022-07-10T13:43:00;23.70;60.00
1453;DHT22;720;47.738;7.998;2022-07-10T13:45:26;23.60;61.10
1453;DHT22;720;47.738;7.998;2022-07-10T13:47:55;23.50;57.60
1453;DHT22;720;47.738;7.998;2022-07-10T13:50:22;23.40;57.70
1453;DHT22;720;47.738;7.998;2022-07-10T13:52:48;23.30;57.70
1453;DHT22;720;47.738;7.998;2022-07-10T13:55:14;23.20;57.60
1453;DHT22;720;47.738;7.998;2022-07-10T13:57:40;23.10;58.90
1453;DHT22;720;47.738;7.998;2022-07-10T14:00:06;23.10;58.50
1453;DHT22;720;47.738;7.998;2022-07-10T14:02:32;23.10;57.20
1453;DHT22;720;47.738;7.998;2022-07-10T14:04:57;23.00;57.70
1453;DHT22;720;47.738;7.998;2022-07-10T14:07:23;22.90;56.70
1453;DHT22;720;47.738;7.998;2022-07-10T14:09:49;22.80;56.90
1453;DHT22;720;47.738;7.998;2022-07-10T14:12:14;22.80;57.90
1453;DHT22;720;47.738;7.998;2022-07-10T14:14:40;22.80;56.70
1453;DHT22;720;47.738;7.998;2022-07-10T14:17:06;22.70;56.60
1453;DHT22;720;47.738;7.998;2022-07-10T14:19:32;22.80;57.40
1453;DHT22;720;47.738;7.998;2022-07-10T14:21:57;22.60;55.80
1453;DHT22;720;47.738;7.998;2022-07-10T14:24:24;22.60;56.80
1453;DHT22;720;47.738;7.998;2022-07-10T14:26:50;22.60;57.60
1453;DHT22;720;47.738;7.998;2022-07-10T14:29:18;22.60;56.50
1453;DHT22;720;47.738;7.998;2022-07-10T14:31:43;22.60;56.20
1453;DHT22;720;47.738;7.998;2022-07-10T14:34:13;22.60;54.90
1453;DHT22;720;47.738;7.998;2022-07-10T14:36:38;22.40;53.70
1453;DHT22;720;47.738;7.998;2022-07-10T14:39:04;22.30;53.70
1453;DHT22;720;47.738;7.998;2022-07-10T14:41:30;22.20;53.40
1453;DHT22;720;47.738;7.998;2022-07-10T14:43:56;22.20;52.50
1453;DHT22;720;47.738;7.998;2022-07-10T14:46:21;22.20;53.50
1453;DHT22;720;47.738;7.998;2022-07-10T14:48:47;22.30;53.80
1453;DHT22;720;47.738;7.998;2022-07-10T14:51:13;22.30;53.40
1453;DHT22;720;47.738;7.998;2022-07-10T14:53:39;22.30;52.80
1453;DHT22;720;47.738;7.998;2022-07-10T14:56:07;22.30;53.60
1453;DHT22;720;47.738;7.998;2022-07-10T14:58:33;22.20;53.50
1453;DHT22;720;47.738;7.998;2022-07-10T15:00:58;22.20;53.60
1453;DHT22;720;47.738;7.998;2022-07-10T15:03:25;22.10;52.80
1453;DHT22;720;47.738;7.998;2022-07-10T15:05:51;22.10;53.50
1453;DHT22;720;47.738;7.998;2022-07-10T15:08:20;22.10;52.70
1453;DHT22;720;47.738;7.998;2022-07-10T15:10:46;22.00;51.00
1453;DHT22;720;47.738;7.998;2022-07-10T15:13:13;22.00;52.00
1453;DHT22;720;47.738;7.998;2022-07-10T15:15:38;22.00;51.90
1453;DHT22;720;47.738;7.998;2022-07-10T15:18:04;21.90;52.00
1453;DHT22;720;47.738;7.998;2022-07-10T15:20:30;21.90;56.00
1453;DHT22;720;47.738;7.998;2022-07-10T15:22:55;21.90;52.90
1453;DHT22;720;47.738;7.998;2022-07-10T15:25:21;21.70;52.10
1453;DHT22;720;47.738;7.998;2022-07-10T15:27:47;21.70;52.00
1453;DHT22;720;47.738;7.998;2022-07-10T15:30:12;21.60;52.50
1453;DHT22;720;47.738;7.998;2022-07-10T15:32:39;21.60;50.30
1453;DHT22;720;47.738;7.998;2022-07-10T15:35:05;21.50;51.10
1453;DHT22;720;47.738;7.998;2022-07-10T15:37:32;21.50;51.60
1453;DHT22;720;47.738;7.998;2022-07-10T15:39:58;21.50;52.10
1453;DHT22;720;47.738;7.998;2022-07-10T15:42:24;21.50;50.50
1453;DHT22;720;47.738;7.998;2022-07-10T15:44:50;21.40;50.50
1453;DHT22;720;47.738;7.998;2022-07-10T15:47:15;21.20;49.90
1453;DHT22;720;47.738;7.998;2022-07-10T15:49:42;21.10;50.80
1453;DHT22;720;47.738;7.998;2022-07-10T15:52:07;21.00;51.50
1453;DHT22;720;47.738;7.998;2022-07-10T15:54:33;21.00;48.60
1453;DHT22;720;47.738;7.998;2022-07-10T15:56:59;20.90;50.90
1453;DHT22;720;47.738;7.998;2022-07-10T15:59:27;20.80;48.80
1453;DHT22;720;47.738;7.998;2022-07-10T16:01:54;20.80;50.10
1453;DHT22;720;47.738;7.998;2022-07-10T16:04:20;20.70;52.50
1453;DHT22;720;47.738;7.998;2022-07-10T16:06:47;20.60;49.60
1453;DHT22;720;47.738;7.998;2022-07-10T16:09:14;20.50;51.30
1453;DHT22;720;47.738;7.998;2022-07-10T16:11:39;20.30;51.00
1453;DHT22;720;47.738;7.998;2022-07-10T16:14:06;20.20;50.90
1453;DHT22;720;47.738;7.998;2022-07-10T16:16:32;20.10;51.00
1453;DHT22;720;47.738;7.998;2022-07-10T16:18:58;20.10;52.10
1453;DHT22;720;47.738;7.998;2022-07-10T16:21:24;20.00;55.70
1453;DHT22;720;47.738;7.998;2022-07-10T16:23:49;19.80;53.80
1453;DHT22;720;47.738;7.998;2022-07-10T16:26:17;19.70;50.40
1453;DHT22;720;47.738;7.998;2022-07-10T16:28:42;19.80;51.40
1453;DHT22;720;47.738;7.998;2022-07-10T16:31:08;19.80;54.70
1453;DHT22;720;47.738;7.998;2022-07-10T16:33:34;19.70;54.40
1453;DHT22;720;47.738;7.998;2022-07-10T16:35:59;19.50;54.70
1453;DHT22;720;47.738;7.998;2022-07-10T16:38:25;19.50;51.00
1453;DHT22;720;47.738;7.998;2022-07-10T16:40:52;19.50;52.50
1453;DHT22;720;47.738;7.998;2022-07-10T16:43:18;19.50;53.90
1453;DHT22;720;47.738;7.998;2022-07-10T16:45:44;19.50;53.60
1453;DHT22;720;47.738;7.998;2022-07-10T16:48:13;19.40;54.70
1453;DHT22;720;47.738;7.998;2022-07-10T16:50:39;19.30;55.00
1453;DHT22;720;47.738;7.998;2022-07-10T16:53:05;19.30;55.60
1453;DHT22;720;47.738;7.998;2022-07-10T16:55:31;19.20;57.20